Time;durP1;ratioP1;P1;durP2;ratioP2;P2;SDS_P1;SDS_P2;PMS_P1;PMS_P2;Temp;Humidity;BMP_temperature;BMP_pressure;BME280_temperature;BME280_humidity;BME280_pressure;Samples;Min_cycle;Max_cycle;Signal;HPM_P1;HPM_P2
2023/04/20 00:01:12;;;;;;;12.50;8.90;;;1.20;99.90;;;;;;5074719;28;20266;-74
2023/04/20 00:03:39;;;;;;;11.07;8.07;;;1.20;99.90;;;;;;5074593;28;20193;-75
2023/04/20 00:06:06;;;;;;;11.83;9.53;;;1.30;99.90;;;;;;5074506;28;20201;-74
2023/04/20 00:08:34;;;;;;;13.47;9.40;;;1.40;99.90;;;;;;5074398;28;20221;-73
2023/04/20 00:11:01;;;;;;;10.87;8.63;;;1.40;99.90;;;;;;5074702;28;20202;-73
2023/04/20 00:13:28;;;;;;;15.30;9.73;;;1.10;99.90;;;;;;5074515;28;20225;-74
2023/04/20 00:15:54;;;;;;;11.07;9.07;;;1.10;99.90;;;;;;5074466;28;20201;-74
2023/04/20 00:18:21;;;;;;;12.67;8.97;;;1.20;99.90;;;;;;5074374;28;20616;-74
2023/04/20 00:20:47;;;;;;;11.70;8.73;;;1.10;99.90;;;;;;5074165;28;20247;-74
2023/04/20 00:23:14;;;;;;;11.80;9.37;;;1.00;99.90;;;;;;5074378;28;20197;-74
2023/04/20 00:25:42;;;;;;;12.50;8.83;;;0.70;99.90;;;;;;5074289;28;20284;-74
2023/04/20 00:28:09;;;;;;;14.33;9.40;;;0.60;99.90;;;;;;5074111;28;20248;-74
2023/04/20 00:30:35;;;;;;;15.03;9.07;;;0.50;99.90;;;;;;5073982;28;20268;-74
2023/04/20 00:33:02;;;;;;;12.47;9.33;;;0.40;99.90;;;;;;5074009;28;20228;-73
2023/04/20 00:35:29;;;;;;;11.73;9.30;;;0.40;99.90;;;;;;5073391;28;20229;-74
2023/04/20 00:37:55;;;;;;;13.27;10.17;;;0.40;99.90;;;;;;5074128;28;20197;-74
2023/04/20 00:40:22;;;;;;;10.73;9.03;;;0.30;99.90;;;;;;5073975;28;20599;-75
2023/04/20 00:42:50;;;;;;;13.57;9.17;;;0.20;99.90;;;;;;5073783;28;20653;-74
2023/04/20 00:45:17;;;;;;;10.97;9.57;;;0.50;99.90;;;;;;5073844;28;20197;-75
2023/04/20 00:47:43;;;;;;;13.40;9.40;;;0.50;99.90;;;;;;5073803;28;20256;-74
2023/04/20 00:50:11;;;;;;;12.80;9.57;;;0.40;99.90;;;;;;5073625;28;20695;-75
2023/04/20 00:52:38;;;;;;;12.70;9.40;;;0.30;99.90;;;;;;5073818;28;20193;-74
2023/04/20 00:55:06;;;;;;;13.37;10.07;;;0.20;99.90;;;;;;5073778;28;20235;-74
2023/04/20 00:57:33;;;;;;;11.13;9.53;;;0.20;99.90;;;;;;5073723;28;20254;-74
2023/04/20 01:00:01;;;;;;;13.50;10.30;;;0.50;99.90;;;;;;5073652;28;20266;-74
2023/04/20 01:02:27;;;;;;;10.93;8.77;;;0.50;99.90;;;;;;5073135;28;20204;-74
2023/04/20 01:04:55;;;;;;;13.47;9.67;;;0.40;99.90;;;;;;5073749;28;20259;-75
2023/04/20 01:07:21;;;;;;;14.83;9.37;;;0.30;99.90;;;;;;5073599;28;20230;-74
2023/04/20 01:09:48;;;;;;;11.87;9.77;;;0.20;99.90;;;;;;5073345;28;20274;-74
2023/04/20 01:12:14;;;;;;;12.67;9.83;;;0.20;99.90;;;;;;5073367;28;20236;-74
2023/04/20 01:14:41;;;;;;;13.47;9.87;;;0.10;99.90;;;;;;5073333;28;20254;-74
2023/04/20 01:17:09;;;;;;;12.20;9.50;;;0.10;99.90;;;;;;5073184;28;20541;-74
2023/04/20 01:19:36;;;;;;;13.73;9.73;;;0.20;99.90;;;;;;5073089;28;20672;-74
2023/04/20 01:22:02;;;;;;;14.90;11.10;;;0.10;99.90;;;;;;5073197;28;20228;-74
2023/04/20 01:24:30;;;;;;;14.33;10.93;;;0.10;99.90;;;;;;5073210;28;20270;-76
2023/04/20 01:26:57;;;;;;;17.57;10.83;;;0.00;99.90;;;;;;5073089;28;20247;-74
2023/04/20 01:29:24;;;;;;;11.90;9.97;;;-0.10;99.90;;;;;;5072976;28;20220;-74
2023/04/20 01:31:51;;;;;;;13.17;10.77;;;-0.10;99.90;;;;;;5072827;28;20200;-76
2023/04/20 01:34:17;;;;;;;13.20;10.17;;;0.10;99.90;;;;;;5072893;28;20232;-74
2023/04/20 01:36:44;;;;;;;13.27;10.33;;;0.00;99.90;;;;;;5072906;28;20694;-74
2023/04/20 01:39:11;;;;;;;12.47;10.00;;;0.00;99.90;;;;;;5072782;28;20224;-74
2023/04/20 01:41:40;;;;;;;13.40;10.20;;;-0.10;99.90;;;;;;5072947;28;20232;-74
2023/04/20 01:44:07;;;;;;;17.23;10.83;;;0.00;99.90;;;;;;5072652;28;20660;-74
2023/04/20 01:46:36;;;;;;;12.70;10.83;;;0.10;99.90;;;;;;5072214;28;20236;-74
2023/04/20 01:49:03;;;;;;;17.07;10.80;;;0.10;99.90;;;;;;5072862;28;20247;-74
2023/04/20 01:51:31;;;;;;;15.17;10.33;;;0.20;99.90;;;;;;5072797;28;20231;-75
2023/04/20 01:53:58;;;;;;;14.87;10.77;;;0.10;99.90;;;;;;5072876;28;20193;-74
2023/04/20 01:56:25;;;;;;;13.27;10.40;;;-0.10;99.90;;;;;;5072713;28;20236;-75
2023/04/20 01:58:53;;;;;;;14.40;10.10;;;-0.20;99.90;;;;;;5072696;28;20236;-74
2023/04/20 02:01:19;;;;;;;14.90;10.00;;;-0.10;99.90;;;;;;5072820;28;20224;-74
2023/04/20 02:03:47;;;;;;;13.47;10.77;;;0.10;99.90;;;;;;5072550;28;20568;-75
2023/04/20 02:06:14;;;;;;;13.77;10.40;;;0.20;99.90;;;;;;5072533;28;20661;-74
2023/04/20 02:08:41;;;;;;;13.87;10.20;;;0.20;99.90;;;;;;5072687;28;20341;-74
2023/04/20 02:11:07;;;;;;;12.07;10.03;;;0.30;99.90;;;;;;5072477;28;20260;-74
2023/04/20 02:13:34;;;;;;;13.40;10.90;;;0.30;99.90;;;;;;5072501;28;20247;-74
2023/04/20 02:16:02;;;;;;;14.93;10.27;;;0.30;99.90;;;;;;5072714;28;20220;-74
2023/04/20 02:18:31;;;;;;;15.20;10.73;;;0.30;99.90;;;;;;5072624;28;20228;-74
2023/04/20 02:20:58;;;;;;;15.27;10.40;;;0.40;99.90;;;;;;5072530;28;20201;-74
2023/04/20 02:23:25;;;;;;;13.47;10.83;;;0.30;99.90;;;;;;5072509;28;20233;-74
2023/04/20 02:25:51;;;;;;;14.07;10.67;;;0.10;99.90;;;;;;5072367;28;20240;-74
2023/04/20 02:28:18;;;;;;;13.90;10.60;;;0.10;99.90;;;;;;5072605;28;20228;-74
2023/04/20 02:30:45;;;;;;;14.07;10.50;;;0.10;99.90;;;;;;5072576;28;20274;-75
2023/04/20 02:33:13;;;;;;;12.50;10.20;;;0.20;99.90;;;;;;5072411;28;20228;-74
2023/04/20 02:35:39;;;;;;;13.40;11.13;;;0.30;99.90;;;;;;5072155;28;20741;-74
2023/04/20 02:38:06;;;;;;;13.53;10.70;;;0.30;99.90;;;;;;5072361;28;20224;-74
2023/04/20 02:40:32;;;;;;;14.50;10.70;;;0.30;99.90;;;;;;5072244;28;20315;-74
2023/04/20 02:42:59;;;;;;;17.83;10.23;;;0.30;99.90;;;;;;5072536;28;20228;-74
2023/04/20 02:45:25;;;;;;;16.13;10.73;;;0.00;99.90;;;;;;5072518;28;20235;-74
2023/04/20 02:47:52;;;;;;;15.83;11.27;;;0.00;99.90;;;;;;5072347;28;20621;-75
2023/04/20 02:50:20;;;;;;;13.93;11.10;;;0.00;99.90;;;;;;5072031;28;20255;-74
2023/04/20 02:52:47;;;;;;;13.13;10.57;;;0.00;99.90;;;;;;5072248;28;20208;-74
2023/04/20 02:55:14;;;;;;;13.23;10.23;;;-0.10;99.90;;;;;;5072077;28;20705;-75
2023/04/20 02:57:41;;;;;;;15.23;10.60;;;-0.30;99.90;;;;;;5073142;28;20244;-72
2023/04/20 03:00:09;;;;;;;16.47;10.73;;;-0.40;99.90;;;;;;5075933;28;20205;-75
2023/04/20 03:02:36;;;;;;;18.40;10.93;;;-0.40;99.90;;;;;;5075920;28;20309;-73
2023/04/20 03:05:03;;;;;;;16.83;11.77;;;-0.40;99.90;;;;;;5075523;28;20254;-72
2023/04/20 03:07:31;;;;;;;14.27;11.03;;;-0.40;99.90;;;;;;5075704;28;20205;-72
2023/04/20 03:09:58;;;;;;;15.53;10.83;;;-0.40;99.90;;;;;;5075220;28;20688;-75
2023/04/20 03:12:25;;;;;;;17.50;11.17;;;-0.50;99.90;;;;;;5075675;28;20232;-75
2023/04/20 03:14:52;;;;;;;15.80;11.17;;;-0.60;99.90;;;;;;5075690;28;20193;-74
2023/04/20 03:17:18;;;;;;;16.13;11.10;;;-0.50;99.90;;;;;;5075519;28;20672;-73
2023/04/20 03:19:45;;;;;;;17.20;10.57;;;-0.60;99.90;;;;;;5075462;28;20291;-73
2023/04/20 03:22:11;;;;;;;14.43;11.10;;;-0.60;99.90;;;;;;5075342;28;20229;-73
2023/04/20 03:24:39;;;;;;;18.13;12.13;;;-0.60;99.90;;;;;;5075612;28;20331;-73
2023/04/20 03:27:06;;;;;;;18.47;13.27;;;-0.50;99.90;;;;;;5075415;28;20224;-73
2023/04/20 03:29:33;;;;;;;20.50;14.43;;;-0.30;99.90;;;;;;5075392;28;20278;-74
2023/04/20 03:31:59;;;;;;;16.00;12.40;;;-0.20;99.90;;;;;;5075291;28;20228;-74
2023/04/20 03:34:26;;;;;;;19.77;14.60;;;-0.20;99.90;;;;;;5075007;28;20235;-74
2023/04/20 03:36:53;;;;;;;21.10;15.53;;;-0.20;99.90;;;;;;5075015;28;20663;-73
2023/04/20 03:39:19;;;;;;;21.30;14.80;;;-0.10;99.90;;;;;;5075323;28;20204;-74
2023/04/20 03:41:47;;;;;;;21.77;15.20;;;-0.20;99.90;;;;;;5075112;28;20295;-74
2023/04/20 03:44:14;;;;;;;21.50;16.63;;;-0.20;99.90;;;;;;5075053;28;20225;-74
2023/04/20 03:46:41;;;;;;;26.13;16.73;;;-0.30;99.90;;;;;;5075093;28;20197;-74
2023/04/20 03:49:07;;;;;;;26.53;17.90;;;-0.30;99.90;;;;;;5074962;28;20200;-74
2023/04/20 03:51:34;;;;;;;27.70;17.27;;;-0.20;99.90;;;;;;5075095;28;20293;-74
2023/04/20 03:54:01;;;;;;;26.40;18.53;;;-0.10;99.90;;;;;;5074896;28;20653;-75
2023/04/20 03:56:27;;;;;;;26.33;18.63;;;-0.20;99.90;;;;;;5074986;28;20236;-75
2023/04/20 03:58:55;;;;;;;32.07;18.47;;;-0.20;99.90;;;;;;5074826;28;20220;-74
2023/04/20 04:01:22;;;;;;;20.90;16.87;;;-0.20;99.90;;;;;;5074659;28;20224;-74
2023/04/20 04:03:49;;;;;;;27.43;18.40;;;-0.30;99.90;;;;;;5074641;28;20225;-73
2023/04/20 04:06:15;;;;;;;24.93;19.13;;;-0.20;99.90;;;;;;5074820;28;20197;-74
2023/04/20 04:08:42;;;;;;;29.03;19.07;;;-0.30;99.90;;;;;;5074588;28;20239;-74
2023/04/20 04:11:09;;;;;;;28.53;19.77;;;-0.20;99.90;;;;;;5073977;28;20225;-74
2023/04/20 04:13:36;;;;;;;28.07;19.70;;;-0.20;99.90;;;;;;5074634;28;20201;-73
2023/04/20 04:16:05;;;;;;;29.83;20.33;;;-0.20;99.90;;;;;;5074424;28;20232;-73
2023/04/20 04:18:32;;;;;;;29.50;18.97;;;-0.20;99.90;;;;;;5074381;28;20205;-73
2023/04/20 04:20:58;;;;;;;27.13;19.93;;;0.00;99.90;;;;;;5074451;28;20201;-73
2023/04/20 04:23:25;;;;;;;30.57;20.03;;;-0.10;99.90;;;;;;5074394;28;20260;-74
2023/04/20 04:25:52;;;;;;;28.40;20.47;;;0.00;99.90;;;;;;5074173;28;20228;-74
2023/04/20 04:28:19;;;;;;;30.60;20.73;;;0.00;99.90;;;;;;5074056;28;20615;-73
2023/04/20 04:30:46;;;;;;;30.07;22.17;;;-0.10;99.90;;;;;;5073877;28;20221;-73
2023/04/20 04:33:17;;;;;;;30.73;21.27;;;0.10;99.90;;;;;;5074256;28;20193;-75
2023/04/20 04:35:44;;;;;;;32.57;21.67;;;0.20;99.90;;;;;;5073726;28;20225;-73
2023/04/20 04:38:11;;;;;;;33.00;22.77;;;0.30;99.90;;;;;;5074021;28;20201;-73
2023/04/20 04:40:38;;;;;;;35.20;24.57;;;0.40;99.90;;;;;;5073861;28;20232;-74
2023/04/20 04:43:06;;;;;;;36.17;25.53;;;0.50;99.90;;;;;;5073705;28;20683;-73
2023/04/20 04:45:33;;;;;;;35.70;23.60;;;0.60;99.90;;;;;;5073654;28;20205;-73
2023/04/20 04:47:59;;;;;;;35.20;25.10;;;0.60;99.90;;;;;;5073916;28;20349;-74
2023/04/20 04:50:27;;;;;;;33.97;23.63;;;0.60;99.90;;;;;;5073765;28;20256;-75
2023/04/20 04:52:54;;;;;;;35.37;24.27;;;0.60;99.90;;;;;;5073619;28;20691;-74
2023/04/20 04:55:21;;;;;;;36.50;25.73;;;0.80;99.90;;;;;;5073557;28;20201;-74
2023/04/20 04:57:47;;;;;;;37.80;25.47;;;0.80;99.90;;;;;;5073529;28;20244;-74
2023/04/20 05:00:15;;;;;;;33.10;24.97;;;0.80;99.90;;;;;;5073632;28;20235;-75
2023/04/20 05:02:42;;;;;;;40.53;26.17;;;0.90;99.90;;;;;;5073533;28;20284;-74
2023/04/20 05:05:09;;;;;;;37.60;25.47;;;1.00;99.90;;;;;;5073460;28;20228;-74
2023/04/20 05:07:38;;;;;;;41.00;26.10;;;1.10;99.90;;;;;;5073441;28;20236;-75
2023/04/20 05:10:07;;;;;;;34.23;24.30;;;1.20;99.90;;;;;;5073088;28;20194;-74
2023/04/20 05:12:34;;;;;;;36.33;24.50;;;1.30;99.90;;;;;;5073209;28;20229;-75
2023/04/20 05:15:00;;;;;;;36.47;25.57;;;1.40;99.90;;;;;;5073357;28;20250;-75
2023/04/20 05:17:27;;;;;;;36.50;25.20;;;1.40;99.90;;;;;;5073209;28;20244;-75
2023/04/20 05:19:53;;;;;;;36.13;24.77;;;1.60;99.90;;;;;;5073120;28;20636;-75
2023/04/20 05:22:20;;;;;;;34.90;24.73;;;1.70;99.90;;;;;;5073122;28;20229;-76
2023/04/20 05:24:48;;;;;;;36.20;25.97;;;1.70;99.90;;;;;;5073105;28;20270;-72
2023/04/20 05:27:15;;;;;;;37.40;25.60;;;1.80;99.90;;;;;;5072837;28;20656;-73
2023/04/20 05:29:41;;;;;;;33.70;25.33;;;1.90;99.90;;;;;;5072885;28;20807;-75
2023/04/20 05:32:08;;;;;;;32.03;24.47;;;1.90;99.90;;;;;;5073032;28;20287;-74
2023/04/20 05:34:34;;;;;;;34.70;26.23;;;2.00;99.90;;;;;;5072640;28;20260;-74
2023/04/20 05:37:03;;;;;;;30.63;22.83;;;2.00;99.90;;;;;;5072738;28;20229;-74
2023/04/20 05:39:30;;;;;;;32.03;23.33;;;2.10;99.90;;;;;;5072363;28;20246;-73
2023/04/20 05:41:58;;;;;;;31.67;23.43;;;2.20;99.90;;;;;;5072713;28;20197;-76
2023/04/20 05:44:25;;;;;;;31.90;23.97;;;2.30;99.90;;;;;;5072698;28;20658;-73
2023/04/20 05:46:51;;;;;;;35.00;23.30;;;2.30;99.90;;;;;;5072869;28;20225;-73
2023/04/20 05:49:18;;;;;;;25.83;21.20;;;2.40;99.90;;;;;;5072835;28;20239;-74
2023/04/20 05:51:45;;;;;;;31.27;20.73;;;2.50;99.90;;;;;;5072525;28;20228;-75
2023/04/20 05:54:12;;;;;;;29.17;20.53;;;2.60;99.90;;;;;;5072558;28;20200;-70
2023/04/20 05:56:38;;;;;;;26.90;20.00;;;2.60;99.90;;;;;;5072910;28;20277;-75
2023/04/20 05:59:07;;;;;;;28.10;19.83;;;2.70;99.90;;;;;;5072794;28;20206;-79
2023/04/20 06:01:33;;;;;;;26.10;18.63;;;2.80;99.90;;;;;;5072619;28;20197;-81
2023/04/20 06:04:00;;;;;;;25.07;20.57;;;2.90;99.90;;;;;;5072382;28;20236;-73
2023/04/20 06:06:27;;;;;;;27.83;20.83;;;3.00;99.90;;;;;;5072536;28;20229;-73
2023/04/20 06:08:54;;;;;;;26.73;18.87;;;3.10;99.90;;;;;;5072614;28;20224;-73
2023/04/20 06:11:20;;;;;;;24.73;17.57;;;3.20;99.90;;;;;;5072498;28;20222;-73
2023/04/20 06:13:47;;;;;;;20.97;16.20;;;3.30;99.90;;;;;;5072482;28;20214;-75
2023/04/20 06:16:15;;;;;;;22.80;16.93;;;3.30;99.90;;;;;;5072731;28;20208;-74
2023/04/20 06:18:41;;;;;;;19.43;16.13;;;3.40;99.90;;;;;;5072482;28;20612;-73
2023/04/20 06:21:09;;;;;;;22.23;16.67;;;3.60;99.90;;;;;;5072637;28;20242;-74
2023/04/20 06:23:37;;;;;;;24.57;15.53;;;3.80;99.90;;;;;;5072497;28;20611;-75
2023/04/20 06:26:07;;;;;;;18.17;15.27;;;3.90;99.90;;;;;;5072644;28;20196;-74
2023/04/20 06:28:33;;;;;;;16.90;14.67;;;4.10;99.90;;;;;;5072376;28;20823;-73
2023/04/20 06:31:00;;;;;;;18.07;14.47;;;4.30;99.90;;;;;;5072479;28;20265;-73
2023/04/20 06:33:28;;;;;;;16.77;13.67;;;4.50;99.90;;;;;;5074560;28;20219;-74
2023/04/20 06:35:55;;;;;;;18.67;13.90;;;4.50;99.90;;;;;;5076177;28;20243;-75
2023/04/20 06:38:22;;;;;;;18.37;14.37;;;4.60;99.90;;;;;;5076510;28;20193;-73
2023/04/20 06:40:49;;;;;;;19.97;14.53;;;4.60;99.90;;;;;;5076356;28;20212;-74
2023/04/20 06:43:16;;;;;;;18.13;14.97;;;4.70;99.90;;;;;;5076392;28;20262;-72
2023/04/20 06:45:42;;;;;;;24.07;15.70;;;4.80;99.90;;;;;;5076173;28;20232;-73
2023/04/20 06:48:09;;;;;;;17.53;14.13;;;4.90;99.90;;;;;;5075759;28;20301;-72
2023/04/20 06:50:37;;;;;;;17.87;14.53;;;4.80;99.90;;;;;;5075799;28;20237;-73
2023/04/20 06:53:04;;;;;;;18.70;14.17;;;4.80;99.90;;;;;;5075897;28;20279;-72
2023/04/20 06:55:31;;;;;;;21.67;16.10;;;4.80;99.90;;;;;;5075789;28;20710;-74
2023/04/20 06:57:57;;;;;;;19.10;14.20;;;4.80;99.90;;;;;;5075831;28;20262;-72
2023/04/20 07:00:26;;;;;;;18.93;14.70;;;4.90;99.90;;;;;;5075909;28;20607;-72
2023/04/20 07:02:53;;;;;;;20.03;14.70;;;4.80;99.90;;;;;;5075506;28;20567;-73
2023/04/20 07:05:20;;;;;;;21.30;15.40;;;4.80;99.90;;;;;;5075699;28;20688;-73
2023/04/20 07:07:48;;;;;;;17.67;14.23;;;4.90;99.90;;;;;;5075894;28;20593;-73
2023/04/20 07:10:15;;;;;;;20.87;15.77;;;5.00;99.90;;;;;;5075712;28;20228;-74
2023/04/20 07:12:42;;;;;;;18.13;14.17;;;5.20;99.90;;;;;;5075593;28;20263;-74
2023/04/20 07:15:10;;;;;;;18.67;14.37;;;5.20;99.90;;;;;;5075635;28;20270;-74
2023/04/20 07:17:36;;;;;;;18.10;14.60;;;4.90;99.90;;;;;;5075539;28;20200;-74
2023/04/20 07:20:06;;;;;;;18.80;13.30;;;4.90;99.90;;;;;;5075545;28;20660;-74
2023/04/20 07:22:32;;;;;;;20.27;14.63;;;4.80;99.90;;;;;;5075541;28;20201;-73
2023/04/20 07:25:02;;;;;;;19.40;14.70;;;4.90;99.90;;;;;;5075605;28;20266;-74
2023/04/20 07:27:29;;;;;;;18.23;13.60;;;4.90;99.90;;;;;;5075409;28;20207;-73
2023/04/20 07:29:56;;;;;;;18.93;14.73;;;4.90;99.90;;;;;;5075619;28;20196;-74
2023/04/20 07:32:23;;;;;;;18.43;14.53;;;4.90;99.90;;;;;;5075631;28;20221;-75
2023/04/20 07:34:49;;;;;;;18.53;14.07;;;4.90;99.90;;;;;;5075175;28;20237;-74
2023/04/20 07:37:16;;;;;;;20.20;14.93;;;5.00;99.90;;;;;;5075472;28;20595;-74
2023/04/20 07:39:43;;;;;;;21.13;15.20;;;5.00;99.90;;;;;;5074381;28;20782;-75
2023/04/20 07:42:11;;;;;;;20.73;15.87;;;5.10;99.90;;;;;;5064415;28;20274;-75
2023/04/20 07:44:37;;;;;;;19.87;15.93;;;5.10;99.90;;;;;;5053688;28;20236;-76
2023/04/20 07:47:04;;;;;;;19.17;14.27;;;5.10;99.90;;;;;;5066852;28;20225;-75
2023/04/20 07:49:31;;;;;;;22.07;15.50;;;5.20;99.90;;;;;;5075098;28;20598;-72
2023/04/20 07:51:58;;;;;;;17.43;14.27;;;5.40;99.90;;;;;;5074869;28;20627;-71
2023/04/20 07:54:24;;;;;;;18.47;14.80;;;5.60;99.90;;;;;;5074585;28;20241;-71
2023/04/20 07:56:52;;;;;;;17.83;14.47;;;5.80;99.90;;;;;;5074846;28;20660;-72
2023/04/20 07:59:20;;;;;;;17.17;13.43;;;6.10;99.90;;;;;;5074711;28;20197;-72
2023/04/20 08:01:47;;;;;;;17.90;13.37;;;6.30;99.90;;;;;;5074915;28;20199;-73
2023/04/20 08:04:13;;;;;;;15.30;13.17;;;6.60;99.90;;;;;;5074901;28;20271;-73
2023/04/20 08:06:40;;;;;;;18.40;12.50;;;7.00;99.90;;;;;;5074471;28;20817;-73
2023/04/20 08:09:06;;;;;;;17.17;12.70;;;7.30;99.90;;;;;;5074691;28;20240;-72
2023/04/20 08:11:33;;;;;;;14.23;11.87;;;7.80;99.90;;;;;;5074493;28;20225;-72
2023/04/20 08:14:00;;;;;;;16.73;12.47;;;7.90;99.90;;;;;;5073866;28;20201;-73
2023/04/20 08:16:28;;;;;;;14.57;12.13;;;7.90;99.90;;;;;;5064113;28;20201;-72
2023/04/20 08:18:54;;;;;;;14.07;12.03;;;8.10;99.90;;;;;;5068203;28;20229;-72
2023/04/20 08:21:22;;;;;;;13.47;11.53;;;8.20;99.90;;;;;;5073032;28;20664;-73
2023/04/20 08:23:49;;;;;;;14.20;12.70;;;8.30;99.90;;;;;;5073486;28;20284;-73
2023/04/20 08:26:16;;;;;;;15.70;11.93;;;8.30;99.90;;;;;;5073720;28;20189;-72
2023/04/20 08:28:44;;;;;;;14.50;12.90;;;8.40;99.90;;;;;;5074214;28;20243;-73
2023/04/20 08:31:10;;;;;;;13.20;11.80;;;8.70;99.90;;;;;;5073713;28;20190;-73
2023/04/20 08:33:38;;;;;;;13.30;11.77;;;8.80;99.90;;;;;;5073757;28;20196;-74
2023/04/20 08:36:05;;;;;;;16.27;12.93;;;9.30;99.90;;;;;;5073557;28;20236;-72
2023/04/20 08:38:32;;;;;;;13.07;11.67;;;9.50;99.90;;;;;;5073575;28;20632;-72
2023/04/20 08:40:58;;;;;;;12.23;10.93;;;9.80;99.90;;;;;;5073329;28;20220;-72
2023/04/20 08:43:25;;;;;;;13.23;11.30;;;10.10;99.90;;;;;;5073898;28;20232;-72
2023/04/20 08:45:57;;;;;;;12.40;11.03;;;10.50;99.90;;;;;;5073810;28;20581;-73
2023/04/20 08:48:25;;;;;;;12.57;10.93;;;10.70;99.90;;;;;;5073554;28;20737;-72
2023/04/20 08:50:54;;;;;;;11.77;10.57;;;11.10;99.90;;;;;;5073007;28;20224;-72
2023/04/20 08:53:21;;;;;;;10.80;9.80;;;11.80;99.90;;;;;;5073509;28;20282;-73
2023/04/20 08:55:49;;;;;;;11.13;9.87;;;12.10;99.90;;;;;;5073278;28;20213;-73
2023/04/20 08:58:16;;;;;;;10.87;9.87;;;11.90;99.90;;;;;;5072962;28;20225;-74
2023/04/20 09:00:46;;;;;;;12.10;10.60;;;11.80;99.90;;;;;;5073035;28;20231;-73
2023/04/20 09:03:13;;;;;;;11.70;10.20;;;11.70;99.90;;;;;;5072603;28;20197;-72
2023/04/20 09:05:40;;;;;;;11.10;10.07;;;11.60;99.90;;;;;;5073126;28;20228;-74
2023/04/20 09:08:08;;;;;;;11.17;9.97;;;11.30;99.90;;;;;;5073068;28;20254;-74
2023/04/20 09:10:40;;;;;;;11.17;9.97;;;11.50;99.90;;;;;;5073404;28;20628;-74
2023/04/20 09:13:07;;;;;;;12.53;10.13;;;11.50;99.90;;;;;;5073370;28;20229;-74
2023/04/20 09:15:34;;;;;;;10.43;9.23;;;11.30;99.90;;;;;;5073306;28;20243;-73
2023/04/20 09:18:11;;;;;;;11.00;9.43;;;11.20;99.90;;;;;;5072876;28;20193;-72
2023/04/20 09:20:38;;;;;;;9.40;8.40;;;11.10;99.90;;;;;;5072959;28;20199;-73
2023/04/20 09:23:13;;;;;;;10.97;9.20;;;11.10;99.90;;;;;;5073191;28;20225;-74
2023/04/20 09:25:42;;;;;;;10.13;9.13;;;11.00;99.90;;;;;;5073269;28;20244;-74
2023/04/20 09:28:10;;;;;;;11.13;9.27;;;11.00;99.90;;;;;;5073069;28;20192;-73
2023/04/20 09:30:38;;;;;;;10.57;8.80;;;10.90;99.90;;;;;;5073054;28;20201;-74
2023/04/20 09:33:07;;;;;;;10.33;9.23;;;11.00;99.90;;;;;;5072692;28;20255;-73
2023/04/20 09:35:33;;;;;;;9.63;8.63;;;11.10;99.90;;;;;;5072815;28;20224;-73
2023/04/20 09:38:00;;;;;;;10.27;9.17;;;11.60;99.90;;;;;;5072752;28;20683;-76
2023/04/20 09:40:29;;;;;;;11.87;9.03;;;12.00;99.90;;;;;;5073000;28;20232;-72
2023/04/20 09:43:02;;;;;;;14.23;9.03;;;12.40;99.90;;;;;;5072408;28;20600;-74
2023/04/20 09:45:29;;;;;;;18.30;9.03;;;12.80;99.90;;;;;;5072113;28;20288;-73
2023/04/20 09:47:57;;;;;;;18.60;8.97;;;13.00;99.90;;;;;;5073098;28;20255;-78
2023/04/20 09:50:24;;;;;;;11.80;7.50;;;13.30;99.90;;;;;;5071773;28;20229;-74
2023/04/20 09:52:52;;;;;;;7.95;7.15;;;13.40;99.90;;;;;;5072795;28;20231;-75
2023/04/20 09:55:19;;;;;;;8.43;6.45;;;13.70;99.90;;;;;;5072894;28;20232;-74
2023/04/20 09:57:49;;;;;;;10.88;7.85;;;14.20;97.10;;;;;;5072879;28;20197;-74
2023/04/20 10:00:16;;;;;;;9.30;7.85;;;14.60;95.80;;;;;;5072751;28;20205;-74
2023/04/20 10:02:46;;;;;;;8.40;7.53;;;15.10;95.00;;;;;;5073023;28;20233;-74
2023/04/20 10:05:13;;;;;;;8.02;7.22;;;14.70;93.50;;;;;;5072378;28;20718;-74
2023/04/20 10:07:40;;;;;;;9.35;7.30;;;14.10;92.50;;;;;;5071323;28;20232;-75
2023/04/20 10:10:09;;;;;;;8.30;7.40;;;14.40;92.80;;;;;;5072676;28;20211;-75
2023/04/20 10:12:48;;;;;;;8.23;6.85;;;14.30;91.50;;;;;;5072576;28;20217;-74
2023/04/20 10:15:15;;;;;;;7.55;6.80;;;14.10;90.00;;;;;;5072805;28;20228;-74
2023/04/20 10:17:43;;;;;;;10.93;7.10;;;14.10;90.00;;;;;;5072713;28;20266;-74
2023/04/20 10:20:19;;;;;;;11.02;7.32;;;14.40;88.10;;;;;;5072543;28;20232;-74
2023/04/20 10:22:46;;;;;;;7.60;6.57;;;14.50;85.50;;;;;;5059626;28;20255;-74
2023/04/20 10:25:18;;;;;;;10.95;6.78;;;14.40;81.50;;;;;;5067878;28;20609;-75
2023/04/20 10:27:57;;;;;;;9.88;7.57;;;13.90;81.00;;;;;;5072371;28;20212;-74
2023/04/20 10:30:25;;;;;;;19.58;8.02;;;14.20;82.10;;;;;;5072250;28;20250;-74
2023/04/20 10:33:03;;;;;;;19.92;8.35;;;14.60;80.10;;;;;;5071808;28;20256;-73
2023/04/20 10:35:40;;;;;;;10.02;7.65;;;14.60;78.60;;;;;;5072049;28;20592;-74
2023/04/20 10:38:07;;;;;;;12.73;7.93;;;14.20;79.30;;;;;;5072413;28;20201;-74
2023/04/20 10:40:34;;;;;;;10.27;7.63;;;14.20;79.90;;;;;;5072223;28;20229;-73
2023/04/20 10:43:02;;;;;;;9.18;6.65;;;13.70;78.90;;;;;;5072327;28;20228;-74
2023/04/20 10:45:35;;;;;;;9.60;7.78;;;13.40;78.70;;;;;;5072276;28;20197;-73
2023/04/20 10:48:08;;;;;;;12.43;8.40;;;13.30;82.70;;;;;;5071737;28;20236;-75
2023/04/20 10:50:34;;;;;;;9.23;7.43;;;13.00;82.20;;;;;;5072082;28;20665;-74
2023/04/20 10:53:01;;;;;;;8.60;6.70;;;13.10;84.50;;;;;;5069996;28;20299;-74
2023/04/20 10:55:28;;;;;;;10.87;7.00;;;12.70;80.80;;;;;;5052964;28;20198;-75
2023/04/20 10:57:54;;;;;;;8.83;7.00;;;12.50;80.70;;;;;;5052063;28;20256;-74
2023/04/20 11:00:25;;;;;;;9.03;7.20;;;12.20;81.70;;;;;;5051686;28;20241;-74
2023/04/20 11:02:53;;;;;;;8.13;7.33;;;11.90;82.70;;;;;;5052181;28;20259;-74
2023/04/20 11:05:21;;;;;;;8.27;7.43;;;11.70;85.10;;;;;;5051865;28;20205;-74
2023/04/20 11:07:54;;;;;;;9.33;7.87;;;11.80;87.30;;;;;;5051642;28;20255;-74
2023/04/20 11:10:22;;;;;;;8.30;7.50;;;11.80;88.90;;;;;;5051526;28;20208;-75
2023/04/20 11:12:49;;;;;;;9.27;7.53;;;11.50;88.60;;;;;;5051579;28;20250;-75
2023/04/20 11:15:17;;;;;;;11.53;8.60;;;11.80;89.40;;;;;;5052039;28;20562;-75
2023/04/20 11:17:45;;;;;;;9.33;8.33;;;11.60;89.30;;;;;;5051976;28;20229;-73
2023/04/20 11:20:15;;;;;;;9.27;8.00;;;11.50;90.80;;;;;;5054646;28;20618;-73
2023/04/20 11:22:43;;;;;;;10.40;8.50;;;11.80;91.20;;;;;;5055441;28;20204;-74
2023/04/20 11:25:11;;;;;;;9.47;8.50;;;11.70;91.10;;;;;;5060909;28;20613;-74
2023/04/20 11:27:39;;;;;;;10.00;8.43;;;11.70;92.10;;;;;;5075114;28;20197;-72
2023/04/20 11:30:08;;;;;;;8.87;7.97;;;11.60;92.80;;;;;;5075431;28;20657;-73
2023/04/20 11:32:36;;;;;;;9.43;8.53;;;11.40;92.60;;;;;;5075149;28;20221;-72
2023/04/20 11:35:08;;;;;;;9.20;8.20;;;11.10;93.20;;;;;;5075284;28;20233;-74
2023/04/20 11:37:45;;;;;;;10.77;8.60;;;10.90;93.70;;;;;;5075018;28;20204;-74
2023/04/20 11:40:12;;;;;;;9.60;8.60;;;10.90;95.00;;;;;;5075148;28;20682;-75
2023/04/20 11:42:39;;;;;;;12.43;9.30;;;10.70;94.70;;;;;;5075173;28;20236;-75
2023/04/20 11:45:07;;;;;;;19.53;10.07;;;10.50;95.20;;;;;;5075347;28;20660;-75
2023/04/20 11:47:33;;;;;;;22.80;10.77;;;10.40;96.30;;;;;;5075042;28;20204;-74
2023/04/20 11:50:00;;;;;;;21.00;10.83;;;10.10;96.90;;;;;;5075166;28;20225;-75
2023/04/20 11:52:28;;;;;;;19.80;10.27;;;10.10;98.00;;;;;;5074906;28;20284;-74
2023/04/20 11:54:55;;;;;;;12.77;9.47;;;10.00;98.70;;;;;;5075099;28;20236;-74
2023/04/20 11:57:22;;;;;;;14.47;9.17;;;10.10;98.90;;;;;;5075044;28;20204;-74
2023/04/20 11:59:49;;;;;;;10.47;8.97;;;9.90;99.50;;;;;;5074809;28;20287;-73
2023/04/20 12:02:15;;;;;;;11.80;9.80;;;9.90;99.90;;;;;;5074959;28;20224;-74
2023/04/20 12:04:42;;;;;;;17.83;10.77;;;9.90;99.90;;;;;;5074777;28;20229;-75
2023/04/20 12:07:09;;;;;;;14.60;10.50;;;9.70;99.90;;;;;;5074984;28;20232;-75
2023/04/20 12:09:37;;;;;;;11.27;10.07;;;9.60;99.90;;;;;;5075329;28;20283;-79
2023/04/20 12:12:04;;;;;;;13.80;9.77;;;9.60;99.90;;;;;;5075519;28;20251;-75
2023/04/20 12:14:32;;;;;;;34.00;13.50;;;9.40;99.90;;;;;;5074719;28;20256;-76
2023/04/20 12:16:58;;;;;;;38.77;11.80;;;9.40;99.90;;;;;;5074567;28;20196;-73
2023/04/20 12:19:25;;;;;;;17.43;10.43;;;9.30;99.90;;;;;;5074460;28;20197;-74
2023/04/20 12:21:52;;;;;;;23.10;10.20;;;9.20;99.90;;;;;;5074247;28;20648;-75
2023/04/20 12:24:18;;;;;;;23.73;10.43;;;9.20;99.90;;;;;;5074423;28;20243;-74
2023/04/20 12:26:46;;;;;;;17.00;10.43;;;9.20;99.90;;;;;;5074030;28;20231;-75
2023/04/20 12:29:13;;;;;;;15.10;10.03;;;9.20;99.90;;;;;;5074281;28;20208;-75
2023/04/20 12:31:39;;;;;;;13.37;9.80;;;9.10;99.90;;;;;;5071036;28;20657;-75
2023/04/20 12:34:06;;;;;;;15.70;10.57;;;9.20;99.90;;;;;;5073682;28;20289;-76
2023/04/20 12:36:33;;;;;;;22.87;10.57;;;9.30;99.90;;;;;;5074024;28;20657;-76
2023/04/20 12:39:00;;;;;;;19.13;10.30;;;9.20;99.90;;;;;;5074097;28;20204;-75